sensor_id;sensor_type;location;lat;lon;timestamp;temperature;humidity
2751;DHT22;1383;48.362;10.908;2022-12-07T00:01:21;4.70;69.70
2751;DHT22;1383;48.362;10.908;2022-12-07T00:03:50;4.60;70.00
2751;DHT22;1383;48.362;10.908;2022-12-07T00:06:18;4.70;69.90
2751;DHT22;1383;48.362;10.908;2022-12-07T00:08:46;4.70;69.50
2751;DHT22;1383;48.362;10.908;2022-12-07T00:11:20;4.70;69.70
2751;DHT22;1383;48.362;10.908;2022-12-07T00:13:51;4.70;70.40
2751;DHT22;1383;48.362;10.908;2022-12-07T00:16:20;4.70;70.00
2751;DHT22;1383;48.362;10.908;2022-12-07T00:18:48;4.60;69.50
2751;DHT22;1383;48.362;10.908;2022-12-07T00:21:18;4.60;69.80
2751;DHT22;1383;48.362;10.908;2022-12-07T00:23:47;4.60;70.20
2751;DHT22;1383;48.362;10.908;2022-12-07T00:26:25;4.60;70.90
2751;DHT22;1383;48.362;10.908;2022-12-07T00:28:54;4.70;70.30
2751;DHT22;1383;48.362;10.908;2022-12-07T00:31:24;4.70;69.70
2751;DHT22;1383;48.362;10.908;2022-12-07T00:33:51;4.80;69.40
2751;DHT22;1383;48.362;10.908;2022-12-07T00:36:21;4.70;68.60
2751;DHT22;1383;48.362;10.908;2022-12-07T00:38:54;4.70;68.50
2751;DHT22;1383;48.362;10.908;2022-12-07T00:41:23;4.70;68.60
2751;DHT22;1383;48.362;10.908;2022-12-07T00:43:50;4.70;68.40
2751;DHT22;1383;48.362;10.908;2022-12-07T00:46:18;4.70;68.20
2751;DHT22;1383;48.362;10.908;2022-12-07T00:48:46;4.70;68.40
2751;DHT22;1383;48.362;10.908;2022-12-07T00:51:15;4.70;67.90
2751;DHT22;1383;48.362;10.908;2022-12-07T00:53:42;4.60;68.10
2751;DHT22;1383;48.362;10.908;2022-12-07T00:56:13;4.60;68.20
2751;DHT22;1383;48.362;10.908;2022-12-07T00:58:40;4.60;68.10
2751;DHT22;1383;48.362;10.908;2022-12-07T01:01:08;4.60;68.10
2751;DHT22;1383;48.362;10.908;2022-12-07T01:03:37;4.60;67.90
2751;DHT22;1383;48.362;10.908;2022-12-07T01:06:04;4.60;68.30
2751;DHT22;1383;48.362;10.908;2022-12-07T01:08:31;4.60;68.30
2751;DHT22;1383;48.362;10.908;2022-12-07T01:11:07;4.60;68.20
2751;DHT22;1383;48.362;10.908;2022-12-07T01:13:35;4.50;68.20
2751;DHT22;1383;48.362;10.908;2022-12-07T01:16:04;4.50;68.60
2751;DHT22;1383;48.362;10.908;2022-12-07T01:18:34;4.50;68.80
2751;DHT22;1383;48.362;10.908;2022-12-07T01:21:05;4.50;69.10
2751;DHT22;1383;48.362;10.908;2022-12-07T01:23:34;4.50;69.20
2751;DHT22;1383;48.362;10.908;2022-12-07T01:26:04;4.50;68.80
2751;DHT22;1383;48.362;10.908;2022-12-07T01:28:32;4.40;69.30
2751;DHT22;1383;48.362;10.908;2022-12-07T01:33:32;4.50;70.00
2751;DHT22;1383;48.362;10.908;2022-12-07T01:36:19;4.50;69.90
2751;DHT22;1383;48.362;10.908;2022-12-07T01:38:48;4.50;69.80
2751;DHT22;1383;48.362;10.908;2022-12-07T01:41:16;4.50;69.40
2751;DHT22;1383;48.362;10.908;2022-12-07T01:46:38;4.50;68.60
2751;DHT22;1383;48.362;10.908;2022-12-07T01:49:10;4.50;68.50
2751;DHT22;1383;48.362;10.908;2022-12-07T01:51:40;4.50;68.20
2751;DHT22;1383;48.362;10.908;2022-12-07T01:54:10;4.40;68.40
2751;DHT22;1383;48.362;10.908;2022-12-07T01:56:40;4.40;68.90
2751;DHT22;1383;48.362;10.908;2022-12-07T01:59:11;4.40;69.10
2751;DHT22;1383;48.362;10.908;2022-12-07T02:01:38;4.40;69.30
2751;DHT22;1383;48.362;10.908;2022-12-07T02:04:06;4.40;69.20
2751;DHT22;1383;48.362;10.908;2022-12-07T02:06:37;4.40;68.80
2751;DHT22;1383;48.362;10.908;2022-12-07T02:09:05;4.50;69.00
2751;DHT22;1383;48.362;10.908;2022-12-07T02:11:32;4.40;68.70
2751;DHT22;1383;48.362;10.908;2022-12-07T02:13:59;4.50;69.20
2751;DHT22;1383;48.362;10.908;2022-12-07T02:24:55;4.40;68.50
2751;DHT22;1383;48.362;10.908;2022-12-07T02:27:52;4.40;68.50
2751;DHT22;1383;48.362;10.908;2022-12-07T02:30:24;4.30;68.30
2751;DHT22;1383;48.362;10.908;2022-12-07T02:32:59;4.20;68.50
2751;DHT22;1383;48.362;10.908;2022-12-07T02:38:26;4.30;69.30
2751;DHT22;1383;48.362;10.908;2022-12-07T02:41:12;4.30;68.90
2751;DHT22;1383;48.362;10.908;2022-12-07T02:43:46;4.30;68.90
2751;DHT22;1383;48.362;10.908;2022-12-07T02:46:17;4.30;68.90
2751;DHT22;1383;48.362;10.908;2022-12-07T02:48:46;4.20;68.40
2751;DHT22;1383;48.362;10.908;2022-12-07T02:51:14;4.20;69.20
2751;DHT22;1383;48.362;10.908;2022-12-07T02:53:42;4.20;69.40
2751;DHT22;1383;48.362;10.908;2022-12-07T02:56:31;4.20;69.90
2751;DHT22;1383;48.362;10.908;2022-12-07T02:59:08;4.30;69.60
2751;DHT22;1383;48.362;10.908;2022-12-07T03:07:07;4.40;69.10
2751;DHT22;1383;48.362;10.908;2022-12-07T03:09:50;4.40;69.00
2751;DHT22;1383;48.362;10.908;2022-12-07T03:17:55;4.40;68.10
2751;DHT22;1383;48.362;10.908;2022-12-07T03:20:25;4.40;68.40
2751;DHT22;1383;48.362;10.908;2022-12-07T03:22:54;4.40;68.40
2751;DHT22;1383;48.362;10.908;2022-12-07T03:25:21;4.40;68.00
2751;DHT22;1383;48.362;10.908;2022-12-07T03:27:58;4.30;68.50
2751;DHT22;1383;48.362;10.908;2022-12-07T03:30:39;4.30;69.20
2751;DHT22;1383;48.362;10.908;2022-12-07T03:36:09;4.30;68.90
2751;DHT22;1383;48.362;10.908;2022-12-07T03:38:42;4.30;69.40
2751;DHT22;1383;48.362;10.908;2022-12-07T03:41:22;4.30;69.80
2751;DHT22;1383;48.362;10.908;2022-12-07T03:43:51;4.30;69.90
2751;DHT22;1383;48.362;10.908;2022-12-07T03:49:23;4.30;70.00
2751;DHT22;1383;48.362;10.908;2022-12-07T03:57:33;4.40;69.40
2751;DHT22;1383;48.362;10.908;2022-12-07T04:00:03;4.40;69.10
2751;DHT22;1383;48.362;10.908;2022-12-07T04:02:32;4.40;69.20
2751;DHT22;1383;48.362;10.908;2022-12-07T04:04:59;4.40;69.30
2751;DHT22;1383;48.362;10.908;2022-12-07T04:07:26;4.40;69.00
2751;DHT22;1383;48.362;10.908;2022-12-07T04:09:53;4.40;68.90
2751;DHT22;1383;48.362;10.908;2022-12-07T04:12:22;4.40;68.70
2751;DHT22;1383;48.362;10.908;2022-12-07T04:14:49;4.40;68.70
2751;DHT22;1383;48.362;10.908;2022-12-07T04:17:16;4.30;68.90
2751;DHT22;1383;48.362;10.908;2022-12-07T04:19:43;4.30;69.50
2751;DHT22;1383;48.362;10.908;2022-12-07T04:22:10;4.20;69.90
2751;DHT22;1383;48.362;10.908;2022-12-07T04:24:37;4.10;70.90
2751;DHT22;1383;48.362;10.908;2022-12-07T04:27:05;4.10;72.30
2751;DHT22;1383;48.362;10.908;2022-12-07T04:29:32;4.20;72.00
2751;DHT22;1383;48.362;10.908;2022-12-07T04:31:59;4.20;71.90
2751;DHT22;1383;48.362;10.908;2022-12-07T04:34:25;4.20;71.70
2751;DHT22;1383;48.362;10.908;2022-12-07T04:36:52;4.20;72.10
2751;DHT22;1383;48.362;10.908;2022-12-07T04:39:25;4.20;72.10
2751;DHT22;1383;48.362;10.908;2022-12-07T04:41:52;4.20;72.00
2751;DHT22;1383;48.362;10.908;2022-12-07T04:44:20;4.20;71.90
2751;DHT22;1383;48.362;10.908;2022-12-07T04:46:48;4.20;72.10
2751;DHT22;1383;48.362;10.908;2022-12-07T04:49:16;4.20;71.90
2751;DHT22;1383;48.362;10.908;2022-12-07T04:51:43;4.10;72.70
2751;DHT22;1383;48.362;10.908;2022-12-07T04:54:11;4.20;72.70
2751;DHT22;1383;48.362;10.908;2022-12-07T04:56:38;4.20;73.00
2751;DHT22;1383;48.362;10.908;2022-12-07T04:59:06;4.20;73.10
2751;DHT22;1383;48.362;10.908;2022-12-07T05:01:33;4.20;72.20
2751;DHT22;1383;48.362;10.908;2022-12-07T05:04:00;4.10;72.10
2751;DHT22;1383;48.362;10.908;2022-12-07T05:06:27;4.10;72.40
2751;DHT22;1383;48.362;10.908;2022-12-07T05:08:54;4.20;72.40
2751;DHT22;1383;48.362;10.908;2022-12-07T05:11:21;4.10;71.70
2751;DHT22;1383;48.362;10.908;2022-12-07T05:14:18;4.10;71.70
2751;DHT22;1383;48.362;10.908;2022-12-07T05:16:48;4.10;70.90
2751;DHT22;1383;48.362;10.908;2022-12-07T05:19:17;4.10;70.90
2751;DHT22;1383;48.362;10.908;2022-12-07T05:21:44;4.10;71.20
2751;DHT22;1383;48.362;10.908;2022-12-07T05:24:12;4.10;70.80
2751;DHT22;1383;48.362;10.908;2022-12-07T05:26:40;4.10;70.60
2751;DHT22;1383;48.362;10.908;2022-12-07T05:29:07;4.10;70.50
2751;DHT22;1383;48.362;10.908;2022-12-07T05:31:34;4.10;70.10
2751;DHT22;1383;48.362;10.908;2022-12-07T05:34:01;4.10;69.80
2751;DHT22;1383;48.362;10.908;2022-12-07T05:36:28;4.10;69.90
2751;DHT22;1383;48.362;10.908;2022-12-07T05:38:57;4.10;70.00
2751;DHT22;1383;48.362;10.908;2022-12-07T05:41:24;4.10;70.00
2751;DHT22;1383;48.362;10.908;2022-12-07T05:44:10;4.10;70.30
2751;DHT22;1383;48.362;10.908;2022-12-07T05:46:37;4.10;70.30
2751;DHT22;1383;48.362;10.908;2022-12-07T05:49:03;4.10;70.30
2751;DHT22;1383;48.362;10.908;2022-12-07T05:51:30;4.10;70.70
2751;DHT22;1383;48.362;10.908;2022-12-07T05:53:57;4.10;71.00
2751;DHT22;1383;48.362;10.908;2022-12-07T05:56:24;4.10;71.50
2751;DHT22;1383;48.362;10.908;2022-12-07T05:58:51;4.10;71.40
2751;DHT22;1383;48.362;10.908;2022-12-07T06:01:36;4.10;71.60
2751;DHT22;1383;48.362;10.908;2022-12-07T06:04:03;4.10;71.60
2751;DHT22;1383;48.362;10.908;2022-12-07T06:06:30;4.00;72.00
2751;DHT22;1383;48.362;10.908;2022-12-07T06:08:57;4.00;72.40
2751;DHT22;1383;48.362;10.908;2022-12-07T06:11:24;4.00;72.40
2751;DHT22;1383;48.362;10.908;2022-12-07T06:14:09;4.00;72.60
2751;DHT22;1383;48.362;10.908;2022-12-07T06:16:36;4.00;72.40
2751;DHT22;1383;48.362;10.908;2022-12-07T06:19:03;3.90;72.60
2751;DHT22;1383;48.362;10.908;2022-12-07T06:21:30;3.90;73.00
2751;DHT22;1383;48.362;10.908;2022-12-07T06:23:56;3.80;73.50
2751;DHT22;1383;48.362;10.908;2022-12-07T06:26:23;3.70;73.80
2751;DHT22;1383;48.362;10.908;2022-12-07T06:28:50;3.80;73.90
2751;DHT22;1383;48.362;10.908;2022-12-07T06:31:17;3.70;74.20
2751;DHT22;1383;48.362;10.908;2022-12-07T06:33:44;3.70;74.60
2751;DHT22;1383;48.362;10.908;2022-12-07T06:36:11;3.70;74.90
2751;DHT22;1383;48.362;10.908;2022-12-07T06:38:38;3.70;74.80
2751;DHT22;1383;48.362;10.908;2022-12-07T06:41:05;3.70;74.50
2751;DHT22;1383;48.362;10.908;2022-12-07T06:43:33;3.70;74.60
2751;DHT22;1383;48.362;10.908;2022-12-07T06:46:00;3.70;74.50
2751;DHT22;1383;48.362;10.908;2022-12-07T06:48:26;3.70;74.40
2751;DHT22;1383;48.362;10.908;2022-12-07T06:50:53;3.70;74.30
2751;DHT22;1383;48.362;10.908;2022-12-07T06:53:21;3.70;74.40
2751;DHT22;1383;48.362;10.908;2022-12-07T06:55:48;3.70;74.20
2751;DHT22;1383;48.362;10.908;2022-12-07T06:58:16;3.60;74.50
2751;DHT22;1383;48.362;10.908;2022-12-07T07:00:44;3.60;74.60
2751;DHT22;1383;48.362;10.908;2022-12-07T07:03:10;3.60;74.40
2751;DHT22;1383;48.362;10.908;2022-12-07T07:05:37;3.60;74.70
2751;DHT22;1383;48.362;10.908;2022-12-07T07:08:04;3.60;75.20
2751;DHT22;1383;48.362;10.908;2022-12-07T07:10:48;3.50;75.00
2751;DHT22;1383;48.362;10.908;2022-12-07T07:13:15;3.50;75.60
2751;DHT22;1383;48.362;10.908;2022-12-07T07:15:41;3.50;75.90
2751;DHT22;1383;48.362;10.908;2022-12-07T07:18:09;3.50;75.90
2751;DHT22;1383;48.362;10.908;2022-12-07T07:20:36;3.50;75.80
2751;DHT22;1383;48.362;10.908;2022-12-07T07:23:03;3.60;75.80
2751;DHT22;1383;48.362;10.908;2022-12-07T07:25:30;3.50;75.50
2751;DHT22;1383;48.362;10.908;2022-12-07T07:27:57;3.50;75.90
2751;DHT22;1383;48.362;10.908;2022-12-07T07:30:24;3.50;76.00
2751;DHT22;1383;48.362;10.908;2022-12-07T07:32:51;3.50;75.70
2751;DHT22;1383;48.362;10.908;2022-12-07T07:35:22;3.30;76.50
2751;DHT22;1383;48.362;10.908;2022-12-07T07:37:49;3.30;77.10
2751;DHT22;1383;48.362;10.908;2022-12-07T07:40:16;3.30;78.00
2751;DHT22;1383;48.362;10.908;2022-12-07T07:42:42;3.30;78.20
2751;DHT22;1383;48.362;10.908;2022-12-07T07:45:10;3.40;78.10
2751;DHT22;1383;48.362;10.908;2022-12-07T07:47:36;3.40;78.10
2751;DHT22;1383;48.362;10.908;2022-12-07T07:50:04;3.40;77.80
2751;DHT22;1383;48.362;10.908;2022-12-07T07:52:31;3.40;77.80
2751;DHT22;1383;48.362;10.908;2022-12-07T07:54:58;3.50;77.00
2751;DHT22;1383;48.362;10.908;2022-12-07T07:57:25;3.50;76.90
2751;DHT22;1383;48.362;10.908;2022-12-07T07:59:52;3.50;76.60
2751;DHT22;1383;48.362;10.908;2022-12-07T08:02:20;3.60;76.20
2751;DHT22;1383;48.362;10.908;2022-12-07T08:04:47;3.50;76.00
2751;DHT22;1383;48.362;10.908;2022-12-07T08:07:14;3.50;76.10
2751;DHT22;1383;48.362;10.908;2022-12-07T08:09:41;3.50;76.40
2751;DHT22;1383;48.362;10.908;2022-12-07T08:12:08;3.50;76.30
2751;DHT22;1383;48.362;10.908;2022-12-07T08:14:35;3.50;76.20
2751;DHT22;1383;48.362;10.908;2022-12-07T08:17:02;3.60;76.30
2751;DHT22;1383;48.362;10.908;2022-12-07T08:19:29;3.60;76.20
2751;DHT22;1383;48.362;10.908;2022-12-07T08:21:56;3.60;75.80
2751;DHT22;1383;48.362;10.908;2022-12-07T08:24:23;3.50;75.50
2751;DHT22;1383;48.362;10.908;2022-12-07T08:26:50;3.60;76.20
2751;DHT22;1383;48.362;10.908;2022-12-07T08:29:17;3.60;76.20
2751;DHT22;1383;48.362;10.908;2022-12-07T08:31:44;3.60;75.60
2751;DHT22;1383;48.362;10.908;2022-12-07T08:34:12;3.60;75.40
2751;DHT22;1383;48.362;10.908;2022-12-07T08:36:39;3.60;75.00
2751;DHT22;1383;48.362;10.908;2022-12-07T08:39:06;3.70;74.50
2751;DHT22;1383;48.362;10.908;2022-12-07T08:41:52;3.70;73.80
2751;DHT22;1383;48.362;10.908;2022-12-07T08:44:19;3.70;73.40
2751;DHT22;1383;48.362;10.908;2022-12-07T08:46:51;3.70;72.60
2751;DHT22;1383;48.362;10.908;2022-12-07T08:49:29;3.70;73.10
2751;DHT22;1383;48.362;10.908;2022-12-07T08:51:58;3.70;73.30
2751;DHT22;1383;48.362;10.908;2022-12-07T08:54:25;3.80;72.70
2751;DHT22;1383;48.362;10.908;2022-12-07T08:56:54;3.90;72.70
2751;DHT22;1383;48.362;10.908;2022-12-07T08:59:26;4.00;72.20
2751;DHT22;1383;48.362;10.908;2022-12-07T09:01:54;4.10;70.40
2751;DHT22;1383;48.362;10.908;2022-12-07T09:04:21;4.10;69.20
2751;DHT22;1383;48.362;10.908;2022-12-07T09:06:47;4.20;69.00
2751;DHT22;1383;48.362;10.908;2022-12-07T09:09:15;4.30;65.60
2751;DHT22;1383;48.362;10.908;2022-12-07T09:11:42;4.30;65.60
2751;DHT22;1383;48.362;10.908;2022-12-07T09:14:11;4.30;65.10
2751;DHT22;1383;48.362;10.908;2022-12-07T09:16:39;4.40;64.30
2751;DHT22;1383;48.362;10.908;2022-12-07T09:19:07;4.50;62.70
2751;DHT22;1383;48.362;10.908;2022-12-07T09:21:34;4.60;60.70
2751;DHT22;1383;48.362;10.908;2022-12-07T09:24:01;4.60;59.30
2751;DHT22;1383;48.362;10.908;2022-12-07T09:26:28;4.70;58.40
2751;DHT22;1383;48.362;10.908;2022-12-07T09:28:55;4.80;58.20
2751;DHT22;1383;48.362;10.908;2022-12-07T09:31:21;4.80;58.00
2751;DHT22;1383;48.362;10.908;2022-12-07T09:33:58;4.90;57.50
2751;DHT22;1383;48.362;10.908;2022-12-07T09:36:26;5.10;56.90
2751;DHT22;1383;48.362;10.908;2022-12-07T09:38:53;5.20;56.60
2751;DHT22;1383;48.362;10.908;2022-12-07T09:41:21;5.50;54.90
2751;DHT22;1383;48.362;10.908;2022-12-07T09:43:49;5.70;53.50
2751;DHT22;1383;48.362;10.908;2022-12-07T09:46:18;5.90;51.80
2751;DHT22;1383;48.362;10.908;2022-12-07T09:48:47;6.10;50.60
2751;DHT22;1383;48.362;10.908;2022-12-07T09:53:50;6.50;49.80
2751;DHT22;1383;48.362;10.908;2022-12-07T09:56:19;6.70;48.80
2751;DHT22;1383;48.362;10.908;2022-12-07T09:58:47;6.90;48.50
2751;DHT22;1383;48.362;10.908;2022-12-07T10:01:20;7.20;48.40
2751;DHT22;1383;48.362;10.908;2022-12-07T10:03:48;7.60;47.80
2751;DHT22;1383;48.362;10.908;2022-12-07T10:06:16;7.80;45.80
2751;DHT22;1383;48.362;10.908;2022-12-07T10:08:43;8.00;46.00
2751;DHT22;1383;48.362;10.908;2022-12-07T10:11:11;8.30;44.40
2751;DHT22;1383;48.362;10.908;2022-12-07T10:16:58;8.50;43.20
2751;DHT22;1383;48.362;10.908;2022-12-07T10:19:27;8.40;42.60
2751;DHT22;1383;48.362;10.908;2022-12-07T10:22:11;8.30;42.30
2751;DHT22;1383;48.362;10.908;2022-12-07T10:24:39;8.30;41.90
2751;DHT22;1383;48.362;10.908;2022-12-07T10:27:22;8.40;41.80
2751;DHT22;1383;48.362;10.908;2022-12-07T10:29:52;8.40;41.80
2751;DHT22;1383;48.362;10.908;2022-12-07T10:34:46;8.20;39.80
2751;DHT22;1383;48.362;10.908;2022-12-07T10:37:19;8.00;40.70
2751;DHT22;1383;48.362;10.908;2022-12-07T10:39:47;7.70;40.80
2751;DHT22;1383;48.362;10.908;2022-12-07T10:45:13;7.60;40.70
2751;DHT22;1383;48.362;10.908;2022-12-07T10:48:34;7.80;41.20
2751;DHT22;1383;48.362;10.908;2022-12-07T10:50:59;7.70;40.00
2751;DHT22;1383;48.362;10.908;2022-12-07T10:56:53;7.30;38.40
2751;DHT22;1383;48.362;10.908;2022-12-07T11:02:30;7.00;39.70
2751;DHT22;1383;48.362;10.908;2022-12-07T11:05:19;7.00;40.00
2751;DHT22;1383;48.362;10.908;2022-12-07T11:10:32;6.90;40.80
2751;DHT22;1383;48.362;10.908;2022-12-07T11:21:53;6.60;42.50
2751;DHT22;1383;48.362;10.908;2022-12-07T11:38:52;6.50;43.00
2751;DHT22;1383;48.362;10.908;2022-12-07T11:41:27;6.70;42.50
2751;DHT22;1383;48.362;10.908;2022-12-07T11:44:06;6.60;42.40
2751;DHT22;1383;48.362;10.908;2022-12-07T11:46:45;6.60;41.80
2751;DHT22;1383;48.362;10.908;2022-12-07T11:50:05;6.60;41.90
2751;DHT22;1383;48.362;10.908;2022-12-07T11:52:17;6.60;41.40
2751;DHT22;1383;48.362;10.908;2022-12-07T11:54:49;6.40;41.20
2751;DHT22;1383;48.362;10.908;2022-12-07T11:57:28;6.40;41.50
2751;DHT22;1383;48.362;10.908;2022-12-07T12:00:02;6.30;41.30
2751;DHT22;1383;48.362;10.908;2022-12-07T12:02:46;6.30;41.10
2751;DHT22;1383;48.362;10.908;2022-12-07T12:05:18;6.40;41.00
2751;DHT22;1383;48.362;10.908;2022-12-07T12:25:51;6.40;41.00
2751;DHT22;1383;48.362;10.908;2022-12-07T12:33:59;6.30;41.20
2751;DHT22;1383;48.362;10.908;2022-12-07T12:46:59;6.50;40.60
2751;DHT22;1383;48.362;10.908;2022-12-07T12:51:58;6.40;39.80
2751;DHT22;1383;48.362;10.908;2022-12-07T12:54:31;6.40;40.30
2751;DHT22;1383;48.362;10.908;2022-12-07T13:07:48;6.30;41.60
2751;DHT22;1383;48.362;10.908;2022-12-07T13:29:16;6.20;39.20
2751;DHT22;1383;48.362;10.908;2022-12-07T13:31:57;6.10;38.30
2751;DHT22;1383;48.362;10.908;2022-12-07T13:34:40;6.20;38.90
2751;DHT22;1383;48.362;10.908;2022-12-07T13:39:51;6.20;38.30
2751;DHT22;1383;48.362;10.908;2022-12-07T13:42:31;6.20;38.40
2751;DHT22;1383;48.362;10.908;2022-12-07T13:45:01;6.20;38.60
2751;DHT22;1383;48.362;10.908;2022-12-07T13:47:52;6.10;38.80
2751;DHT22;1383;48.362;10.908;2022-12-07T13:50:28;6.20;38.90
2751;DHT22;1383;48.362;10.908;2022-12-07T13:53:00;6.20;38.90
2751;DHT22;1383;48.362;10.908;2022-12-07T13:55:28;6.20;39.00
2751;DHT22;1383;48.362;10.908;2022-12-07T13:57:59;6.20;38.80
2751;DHT22;1383;48.362;10.908;2022-12-07T14:00:28;6.20;38.60
2751;DHT22;1383;48.362;10.908;2022-12-07T14:03:02;6.10;38.80
2751;DHT22;1383;48.362;10.908;2022-12-07T14:05:31;6.10;38.90
2751;DHT22;1383;48.362;10.908;2022-12-07T14:13:32;6.10;38.90
2751;DHT22;1383;48.362;10.908;2022-12-07T14:16:01;6.10;39.00
2751;DHT22;1383;48.362;10.908;2022-12-07T14:18:38;6.00;39.20
2751;DHT22;1383;48.362;10.908;2022-12-07T14:21:17;6.10;39.80
2751;DHT22;1383;48.362;10.908;2022-12-07T14:23:45;6.20;39.90
2751;DHT22;1383;48.362;10.908;2022-12-07T14:26:15;6.20;40.00
2751;DHT22;1383;48.362;10.908;2022-12-07T14:28:43;6.10;39.70
2751;DHT22;1383;48.362;10.908;2022-12-07T14:31:18;6.10;39.70
2751;DHT22;1383;48.362;10.908;2022-12-07T14:33:59;6.10;39.70
2751;DHT22;1383;48.362;10.908;2022-12-07T14:36:26;6.10;40.00
2751;DHT22;1383;48.362;10.908;2022-12-07T14:38:53;6.10;40.30
2751;DHT22;1383;48.362;10.908;2022-12-07T14:41:22;6.00;40.50
2751;DHT22;1383;48.362;10.908;2022-12-07T14:44:12;6.00;40.30
2751;DHT22;1383;48.362;10.908;2022-12-07T14:46:59;5.90;40.20
2751;DHT22;1383;48.362;10.908;2022-12-07T14:49:46;5.80;40.10
2751;DHT22;1383;48.362;10.908;2022-12-07T14:52:36;5.70;40.20
2751;DHT22;1383;48.362;10.908;2022-12-07T14:55:28;5.70;40.60
2751;DHT22;1383;48.362;10.908;2022-12-07T14:57:56;5.60;40.70
2751;DHT22;1383;48.362;10.908;2022-12-07T15:00:25;5.60;40.60
2751;DHT22;1383;48.362;10.908;2022-12-07T15:02:52;5.60;40.50
2751;DHT22;1383;48.362;10.908;2022-12-07T15:05:19;5.60;40.80
2751;DHT22;1383;48.362;10.908;2022-12-07T15:07:47;5.70;40.70
2751;DHT22;1383;48.362;10.908;2022-12-07T15:10:24;5.70;40.60
2751;DHT22;1383;48.362;10.908;2022-12-07T15:12:56;5.70;40.60
2751;DHT22;1383;48.362;10.908;2022-12-07T15:15:42;5.70;40.90
2751;DHT22;1383;48.362;10.908;2022-12-07T15:18:09;5.70;41.10
2751;DHT22;1383;48.362;10.908;2022-12-07T15:20:36;5.70;41.20
2751;DHT22;1383;48.362;10.908;2022-12-07T15:23:03;5.70;41.40
2751;DHT22;1383;48.362;10.908;2022-12-07T15:25:30;5.70;42.00
2751;DHT22;1383;48.362;10.908;2022-12-07T15:27:56;5.70;42.00
2751;DHT22;1383;48.362;10.908;2022-12-07T15:30:23;5.70;41.20
2751;DHT22;1383;48.362;10.908;2022-12-07T15:32:51;5.80;41.40
2751;DHT22;1383;48.362;10.908;2022-12-07T15:35:18;5.70;41.50
2751;DHT22;1383;48.362;10.908;2022-12-07T15:37:45;5.70;41.70
2751;DHT22;1383;48.362;10.908;2022-12-07T15:40:13;5.60;41.40
2751;DHT22;1383;48.362;10.908;2022-12-07T15:42:40;5.60;41.90
2751;DHT22;1383;48.362;10.908;2022-12-07T15:45:08;5.50;41.80
2751;DHT22;1383;48.362;10.908;2022-12-07T15:47:37;5.50;42.00
2751;DHT22;1383;48.362;10.908;2022-12-07T15:50:25;5.50;42.40
2751;DHT22;1383;48.362;10.908;2022-12-07T15:52:51;5.50;42.40
2751;DHT22;1383;48.362;10.908;2022-12-07T15:55:18;5.40;42.40
2751;DHT22;1383;48.362;10.908;2022-12-07T15:57:45;5.40;42.70
2751;DHT22;1383;48.362;10.908;2022-12-07T16:00:12;5.50;42.80
2751;DHT22;1383;48.362;10.908;2022-12-07T16:02:40;5.50;42.90
2751;DHT22;1383;48.362;10.908;2022-12-07T16:05:07;5.40;43.00
2751;DHT22;1383;48.362;10.908;2022-12-07T16:07:34;5.40;43.00
2751;DHT22;1383;48.362;10.908;2022-12-07T16:10:01;5.40;43.00
2751;DHT22;1383;48.362;10.908;2022-12-07T16:12:27;5.40;43.80
2751;DHT22;1383;48.362;10.908;2022-12-07T16:14:54;5.40;43.10
2751;DHT22;1383;48.362;10.908;2022-12-07T16:17:21;5.30;43.10
2751;DHT22;1383;48.362;10.908;2022-12-07T16:19:47;5.40;43.40
2751;DHT22;1383;48.362;10.908;2022-12-07T16:22:14;5.40;43.50
2751;DHT22;1383;48.362;10.908;2022-12-07T16:24:43;5.30;43.60
2751;DHT22;1383;48.362;10.908;2022-12-07T16:27:13;5.30;43.70
2751;DHT22;1383;48.362;10.908;2022-12-07T16:29:40;5.30;43.80
2751;DHT22;1383;48.362;10.908;2022-12-07T16:32:07;5.30;43.80
2751;DHT22;1383;48.362;10.908;2022-12-07T16:34:33;5.30;43.90
2751;DHT22;1383;48.362;10.908;2022-12-07T16:37:00;5.20;44.00
2751;DHT22;1383;48.362;10.908;2022-12-07T16:39:30;5.30;44.20
2751;DHT22;1383;48.362;10.908;2022-12-07T16:41:57;5.20;44.10
2751;DHT22;1383;48.362;10.908;2022-12-07T16:44:23;5.20;44.20
2751;DHT22;1383;48.362;10.908;2022-12-07T16:46:50;5.20;44.40
2751;DHT22;1383;48.362;10.908;2022-12-07T16:49:17;5.10;44.60
2751;DHT22;1383;48.362;10.908;2022-12-07T16:51:46;5.10;44.90
2751;DHT22;1383;48.362;10.908;2022-12-07T16:54:36;5.00;45.50
2751;DHT22;1383;48.362;10.908;2022-12-07T16:57:02;4.90;46.20
2751;DHT22;1383;48.362;10.908;2022-12-07T16:59:30;4.90;46.60
2751;DHT22;1383;48.362;10.908;2022-12-07T17:01:57;4.70;47.30
2751;DHT22;1383;48.362;10.908;2022-12-07T17:04:24;4.70;47.70
2751;DHT22;1383;48.362;10.908;2022-12-07T17:06:51;4.60;47.90
2751;DHT22;1383;48.362;10.908;2022-12-07T17:09:18;4.50;48.40
2751;DHT22;1383;48.362;10.908;2022-12-07T17:11:47;4.50;48.80
2751;DHT22;1383;48.362;10.908;2022-12-07T17:14:14;4.40;49.20
2751;DHT22;1383;48.362;10.908;2022-12-07T17:16:59;4.20;49.70
2751;DHT22;1383;48.362;10.908;2022-12-07T17:19:26;4.20;50.40
2751;DHT22;1383;48.362;10.908;2022-12-07T17:21:53;4.00;50.90
2751;DHT22;1383;48.362;10.908;2022-12-07T17:24:20;3.90;51.90
2751;DHT22;1383;48.362;10.908;2022-12-07T17:26:47;3.90;52.50
2751;DHT22;1383;48.362;10.908;2022-12-07T17:29:16;3.80;52.70
2751;DHT22;1383;48.362;10.908;2022-12-07T17:31:43;3.70;53.30
2751;DHT22;1383;48.362;10.908;2022-12-07T17:34:17;3.70;53.70
2751;DHT22;1383;48.362;10.908;2022-12-07T17:36:44;3.70;54.10
2751;DHT22;1383;48.362;10.908;2022-12-07T17:39:15;3.60;54.30
2751;DHT22;1383;48.362;10.908;2022-12-07T17:41:42;3.50;54.60
2751;DHT22;1383;48.362;10.908;2022-12-07T17:44:28;3.40;55.30
2751;DHT22;1383;48.362;10.908;2022-12-07T17:46:55;3.30;56.00
2751;DHT22;1383;48.362;10.908;2022-12-07T17:49:28;3.30;56.50
2751;DHT22;1383;48.362;10.908;2022-12-07T17:51:55;3.30;56.70
2751;DHT22;1383;48.362;10.908;2022-12-07T17:54:40;3.20;56.90
2751;DHT22;1383;48.362;10.908;2022-12-07T17:57:07;3.10;57.20
2751;DHT22;1383;48.362;10.908;2022-12-07T17:59:34;3.10;57.60
2751;DHT22;1383;48.362;10.908;2022-12-07T18:02:01;3.10;58.00
2751;DHT22;1383;48.362;10.908;2022-12-07T18:04:28;3.10;58.10
2751;DHT22;1383;48.362;10.908;2022-12-07T18:06:55;3.00;58.60
2751;DHT22;1383;48.362;10.908;2022-12-07T18:09:22;3.10;58.60
2751;DHT22;1383;48.362;10.908;2022-12-07T18:11:49;3.00;58.30
2751;DHT22;1383;48.362;10.908;2022-12-07T18:14:16;2.90;58.60
2751;DHT22;1383;48.362;10.908;2022-12-07T18:16:43;2.70;59.30
2751;DHT22;1383;48.362;10.908;2022-12-07T18:19:11;2.50;60.60
2751;DHT22;1383;48.362;10.908;2022-12-07T18:21:40;2.60;61.50
2751;DHT22;1383;48.362;10.908;2022-12-07T18:24:10;2.60;61.40
2751;DHT22;1383;48.362;10.908;2022-12-07T18:26:39;2.50;61.70
2751;DHT22;1383;48.362;10.908;2022-12-07T18:29:07;2.50;61.90
2751;DHT22;1383;48.362;10.908;2022-12-07T18:31:34;2.50;61.80
2751;DHT22;1383;48.362;10.908;2022-12-07T18:34:04;2.50;62.00
2751;DHT22;1383;48.362;10.908;2022-12-07T18:36:34;2.40;62.10
2751;DHT22;1383;48.362;10.908;2022-12-07T18:39:04;2.40;62.60
2751;DHT22;1383;48.362;10.908;2022-12-07T18:41:30;2.40;62.70
2751;DHT22;1383;48.362;10.908;2022-12-07T18:43:57;2.30;62.60
2751;DHT22;1383;48.362;10.908;2022-12-07T18:46:25;2.30;62.70
2751;DHT22;1383;48.362;10.908;2022-12-07T18:48:54;2.30;62.90
2751;DHT22;1383;48.362;10.908;2022-12-07T18:51:22;2.20;63.10
2751;DHT22;1383;48.362;10.908;2022-12-07T18:53:57;2.20;63.70
2751;DHT22;1383;48.362;10.908;2022-12-07T18:56:26;2.20;63.70
2751;DHT22;1383;48.362;10.908;2022-12-07T18:58:55;2.20;64.00